createdAt,value
2023-03-21T00:00:55.739Z,3.13
2023-03-21T00:03:23.644Z,3.10
2023-03-21T00:05:53.408Z,3.07
2023-03-21T00:08:21.584Z,2.40
2023-03-21T00:10:56.779Z,2.93
2023-03-21T00:13:26.422Z,2.27
2023-03-21T00:16:07.149Z,2.67
2023-03-21T00:18:46.172Z,2.30
2023-03-21T00:21:39.514Z,2.37
2023-03-21T00:24:04.277Z,2.10
2023-03-21T00:26:33.793Z,2.40
2023-03-21T00:29:01.588Z,2.43
2023-03-21T00:31:29.349Z,2.47
2023-03-21T00:33:57.540Z,2.23
2023-03-21T00:36:25.913Z,2.43
2023-03-21T00:38:54.398Z,2.97
2023-03-21T00:41:38.954Z,3.03
2023-03-21T00:44:11.435Z,3.10
2023-03-21T00:46:47.354Z,3.00
2023-03-21T00:49:22.164Z,3.03
2023-03-21T00:51:51.539Z,2.87
2023-03-21T00:54:19.474Z,3.10
2023-03-21T00:56:47.234Z,2.83
2023-03-21T00:59:16.548Z,3.37
2023-03-21T01:01:46.529Z,3.00
2023-03-21T01:04:16.527Z,3.17
2023-03-21T01:06:45.530Z,3.00
2023-03-21T01:09:15.507Z,2.90
2023-03-21T01:11:43.579Z,3.03
2023-03-21T01:14:22.059Z,3.13
2023-03-21T01:16:53.074Z,2.83
2023-03-21T01:19:35.233Z,2.87
2023-03-21T01:22:09.015Z,2.97
2023-03-21T01:24:40.432Z,2.70
2023-03-21T01:27:11.388Z,2.83
2023-03-21T01:29:39.127Z,2.80
2023-03-21T01:32:08.314Z,2.70
2023-03-21T01:34:36.173Z,2.80
2023-03-21T01:37:04.081Z,2.90
2023-03-21T01:39:34.765Z,2.60
2023-03-21T01:42:02.565Z,2.90
2023-03-21T01:44:30.704Z,3.10
2023-03-21T01:47:10.517Z,3.23
2023-03-21T01:49:46.065Z,2.80
2023-03-21T01:52:26.515Z,3.23
2023-03-21T01:55:03.706Z,2.80
2023-03-21T01:57:42.366Z,3.27
2023-03-21T02:00:16.537Z,2.70
2023-03-21T02:02:52.663Z,2.80
2023-03-21T02:05:27.203Z,2.20
2023-03-21T02:07:54.967Z,2.60
2023-03-21T02:10:23.149Z,2.70
2023-03-21T02:12:51.103Z,2.70
2023-03-21T02:15:19.084Z,3.20
2023-03-21T02:17:55.055Z,2.93
2023-03-21T02:20:56.063Z,2.73
2023-03-21T02:24:04.702Z,3.20
2023-03-21T02:26:52.442Z,2.77
2023-03-21T02:29:58.831Z,3.17
2023-03-21T02:32:39.434Z,3.10
2023-03-21T02:35:25.860Z,2.70
2023-03-21T02:38:01.249Z,3.07
2023-03-21T02:40:34.580Z,2.90
2023-03-21T02:43:14.148Z,2.67
2023-03-21T02:45:54.168Z,3.00
2023-03-21T02:48:35.254Z,2.83
2023-03-21T02:51:10.342Z,2.70
2023-03-21T02:53:43.707Z,2.53
2023-03-21T02:56:11.767Z,2.10
2023-03-21T02:58:42.132Z,2.40
2023-03-21T03:01:09.943Z,2.30
2023-03-21T03:03:39.338Z,2.60
2023-03-21T03:06:16.951Z,3.00
2023-03-21T03:09:02.541Z,3.10
2023-03-21T03:11:34.026Z,2.57
2023-03-21T03:14:38.492Z,2.63
2023-03-21T03:17:15.151Z,2.60
2023-03-21T03:19:55.208Z,2.93
2023-03-21T03:22:27.578Z,2.60
2023-03-21T03:25:09.629Z,2.93
2023-03-21T03:27:48.110Z,2.50
2023-03-21T03:30:17.567Z,2.37
2023-03-21T03:32:51.042Z,2.57
2023-03-21T03:35:21.262Z,2.50
2023-03-21T03:37:53.026Z,2.13
2023-03-21T03:40:27.618Z,2.60
2023-03-21T03:42:59.703Z,2.67
2023-03-21T03:45:35.080Z,2.50
2023-03-21T03:48:08.313Z,2.73
2023-03-21T03:50:41.265Z,2.60
2023-03-21T03:53:18.624Z,2.80
2023-03-21T03:55:49.621Z,2.90
2023-03-21T03:58:23.644Z,3.57
2023-03-21T04:00:53.642Z,3.87
2023-03-21T04:03:21.906Z,4.70
2023-03-21T04:05:50.238Z,4.90
2023-03-21T04:08:18.241Z,5.37
2023-03-21T04:10:46.155Z,5.53
2023-03-21T04:13:15.313Z,4.80
2023-03-21T04:15:44.475Z,4.00
2023-03-21T04:18:12.540Z,4.30
2023-03-21T04:20:40.573Z,3.80
2023-03-21T04:23:08.650Z,4.33
2023-03-21T04:25:38.703Z,4.53
2023-03-21T04:28:08.247Z,3.60
2023-03-21T04:30:38.456Z,3.70
2023-03-21T04:33:06.373Z,3.30
2023-03-21T04:35:36.444Z,3.33
2023-03-21T04:38:05.180Z,2.90
2023-03-21T04:40:32.980Z,3.13
2023-03-21T04:43:01.199Z,3.17
2023-03-21T04:45:29.102Z,3.47
2023-03-21T04:47:58.263Z,3.47
2023-03-21T04:50:26.070Z,3.70
2023-03-21T04:52:53.875Z,2.80
2023-03-21T04:55:21.720Z,2.90
2023-03-21T04:57:49.599Z,3.37
2023-03-21T05:00:18.226Z,3.10
2023-03-21T05:02:46.062Z,3.60
2023-03-21T05:05:15.328Z,4.07
2023-03-21T05:07:43.284Z,3.10
2023-03-21T05:10:12.762Z,3.37
2023-03-21T05:12:41.289Z,3.87
2023-03-21T05:15:10.393Z,3.40
2023-03-21T05:17:38.186Z,3.20
2023-03-21T05:20:09.157Z,3.50
2023-03-21T05:22:40.422Z,4.23
2023-03-21T05:25:09.298Z,3.90
2023-03-21T05:27:37.460Z,3.80
2023-03-21T05:30:08.784Z,4.30
2023-03-21T05:32:36.632Z,3.43
2023-03-21T05:35:04.809Z,4.07
2023-03-21T05:37:32.776Z,4.60
2023-03-21T05:40:01.927Z,3.97
2023-03-21T05:42:29.721Z,3.93
2023-03-21T05:44:57.505Z,4.13
2023-03-21T05:47:25.529Z,3.60
2023-03-21T05:49:53.374Z,4.20
2023-03-21T05:52:21.183Z,3.77
2023-03-21T05:54:49.056Z,3.90
2023-03-21T05:57:19.064Z,3.47
2023-03-21T05:59:46.825Z,3.77
2023-03-21T06:02:14.654Z,4.30
2023-03-21T06:04:42.574Z,3.70
2023-03-21T06:07:10.522Z,4.17
2023-03-21T06:09:38.278Z,3.93
2023-03-21T06:12:06.293Z,4.70
2023-03-21T06:14:35.492Z,4.23
2023-03-21T06:17:03.260Z,3.97
2023-03-21T06:19:31.171Z,4.17
2023-03-21T06:21:58.949Z,4.13
2023-03-21T06:24:27.373Z,5.07
2023-03-21T06:26:55.980Z,4.73
2023-03-21T06:29:23.793Z,3.83
2023-03-21T06:31:52.925Z,4.70
2023-03-21T06:34:20.689Z,4.30
2023-03-21T06:36:48.557Z,4.10
2023-03-21T06:39:16.600Z,4.23
2023-03-21T06:41:44.432Z,3.80
2023-03-21T06:44:12.207Z,4.03
2023-03-21T06:46:40.159Z,4.13
2023-03-21T06:49:09.293Z,3.57
2023-03-21T06:51:37.372Z,4.27
2023-03-21T06:54:05.139Z,4.00
2023-03-21T06:56:32.877Z,3.87
2023-03-21T06:59:00.650Z,3.40
2023-03-21T07:01:30.450Z,3.50
2023-03-21T07:03:59.427Z,3.33
2023-03-21T07:06:28.578Z,3.73
2023-03-21T07:08:57.092Z,3.47
2023-03-21T07:11:25.735Z,3.40
2023-03-21T07:13:53.545Z,3.30
2023-03-21T07:16:22.109Z,3.30
2023-03-21T07:18:50.014Z,3.73
2023-03-21T07:21:18.571Z,3.10
2023-03-21T07:23:50.080Z,3.00
2023-03-21T07:26:18.270Z,3.13
2023-03-21T07:28:46.304Z,3.43
2023-03-21T07:31:16.493Z,3.07
2023-03-21T07:33:44.721Z,2.90
2023-03-21T07:36:15.254Z,3.10
2023-03-21T07:38:43.190Z,4.03
2023-03-21T07:41:12.454Z,5.90
2023-03-21T07:43:40.234Z,4.13
2023-03-21T07:46:08.108Z,3.73
2023-03-21T07:48:37.116Z,3.60
2023-03-21T07:51:06.334Z,3.27
2023-03-21T07:53:34.250Z,3.03
2023-03-21T07:56:02.030Z,2.93
2023-03-21T07:58:34.036Z,3.30
2023-03-21T08:01:02.092Z,2.90
2023-03-21T08:03:30.900Z,3.20
2023-03-21T08:06:00.923Z,2.73
2023-03-21T08:08:28.844Z,2.53
2023-03-21T08:10:56.652Z,3.27
2023-03-21T08:13:25.914Z,3.00
2023-03-21T08:15:55.158Z,3.10
2023-03-21T08:18:22.934Z,3.00
2023-03-21T08:20:53.145Z,3.30
2023-03-21T08:23:21.424Z,2.60
2023-03-21T08:25:52.796Z,3.20
2023-03-21T08:28:21.006Z,2.80
2023-03-21T08:30:49.292Z,2.87
2023-03-21T08:33:18.602Z,2.87
2023-03-21T08:35:46.782Z,3.10
2023-03-21T08:38:14.755Z,3.07
2023-03-21T08:40:42.518Z,2.77
2023-03-21T08:43:10.318Z,3.07
2023-03-21T08:45:38.372Z,2.73
2023-03-21T08:48:06.650Z,2.47
2023-03-21T08:50:36.468Z,3.00
2023-03-21T08:53:04.219Z,2.80
2023-03-21T08:55:33.071Z,2.50
2023-03-21T08:58:00.904Z,2.27
2023-03-21T09:00:29.165Z,2.10
2023-03-21T09:02:58.751Z,2.17
2023-03-21T09:05:28.163Z,2.40
2023-03-21T09:07:57.611Z,2.37
2023-03-21T09:10:25.446Z,2.60
2023-03-21T09:12:54.935Z,3.17
2023-03-21T09:15:24.801Z,3.17
2023-03-21T09:17:54.137Z,2.27
2023-03-21T09:20:26.154Z,2.47
2023-03-21T09:22:54.599Z,2.40
2023-03-21T09:25:24.491Z,2.30
2023-03-21T09:27:53.583Z,2.40
2023-03-21T09:30:24.746Z,2.87
2023-03-21T09:32:55.516Z,2.33
2023-03-21T09:35:24.166Z,2.80
2023-03-21T09:37:52.506Z,3.10
2023-03-21T09:40:27.232Z,2.77
2023-03-21T09:43:05.836Z,2.80
2023-03-21T09:45:41.710Z,3.23
2023-03-21T09:48:22.343Z,3.20
2023-03-21T09:50:50.426Z,2.57
2023-03-21T09:53:25.687Z,2.10
2023-03-21T09:55:54.897Z,2.30
2023-03-21T09:58:27.590Z,2.43
2023-03-21T10:01:02.380Z,2.20
2023-03-21T10:03:34.876Z,2.03
2023-03-21T10:06:08.302Z,2.13
2023-03-21T10:08:38.630Z,2.10
2023-03-21T10:11:13.380Z,1.93
2023-03-21T10:13:45.600Z,2.40
2023-03-21T10:16:17.385Z,2.23
2023-03-21T10:18:46.765Z,2.20
2023-03-21T10:21:47.767Z,2.40
2023-03-21T10:24:12.945Z,2.30
2023-03-21T10:26:43.312Z,2.60
2023-03-21T10:29:13.739Z,2.40
2023-03-21T10:31:43.354Z,1.80
2023-03-21T10:34:18.369Z,2.13
2023-03-21T10:36:46.749Z,1.90
2023-03-21T10:39:22.658Z,1.90
2023-03-21T10:41:51.993Z,2.40
2023-03-21T10:44:21.780Z,2.40
2023-03-21T10:46:54.525Z,2.30
2023-03-21T10:49:23.160Z,2.10
2023-03-21T10:51:54.107Z,2.57
2023-03-21T10:54:26.291Z,2.40
2023-03-21T10:56:58.939Z,1.87
2023-03-21T10:59:28.838Z,1.70
2023-03-21T11:01:57.822Z,2.10
2023-03-21T11:04:28.201Z,2.93
2023-03-21T11:06:59.550Z,2.30
2023-03-21T11:09:43.739Z,2.47
2023-03-21T11:12:14.589Z,1.90
2023-03-21T11:14:44.446Z,2.20
2023-03-21T11:17:24.732Z,2.00
2023-03-21T11:19:54.841Z,2.30
2023-03-21T11:22:25.385Z,1.93
2023-03-21T11:24:57.689Z,1.60
2023-03-21T11:27:29.261Z,1.80
2023-03-21T11:29:59.772Z,2.43
2023-03-21T11:32:34.744Z,2.03
2023-03-21T11:35:05.997Z,2.27
2023-03-21T11:37:39.083Z,1.60
2023-03-21T11:40:19.482Z,1.70
2023-03-21T11:42:51.753Z,1.70
2023-03-21T11:45:21.298Z,1.60
2023-03-21T11:47:50.604Z,1.97
2023-03-21T11:50:22.016Z,1.67
2023-03-21T11:53:11.739Z,1.90
2023-03-21T11:55:50.301Z,2.10
2023-03-21T11:58:33.475Z,2.00
2023-03-21T12:01:10.068Z,1.90
2023-03-21T12:04:07.663Z,2.40
2023-03-21T12:06:38.308Z,1.80
2023-03-21T12:09:25.109Z,1.47
2023-03-21T12:12:30.016Z,2.00
2023-03-21T12:15:15.866Z,1.50
2023-03-21T12:17:51.821Z,1.70
2023-03-21T12:20:44.613Z,1.60
2023-03-21T12:23:46.982Z,1.50
2023-03-21T12:26:23.975Z,1.70
2023-03-21T12:29:07.729Z,2.57
2023-03-21T12:31:53.420Z,2.40
2023-03-21T12:34:35.796Z,3.00
2023-03-21T12:37:17.054Z,2.80
2023-03-21T12:39:49.064Z,2.57
2023-03-21T12:42:47.205Z,2.20
2023-03-21T12:45:20.344Z,2.23
2023-03-21T12:47:53.125Z,2.10
2023-03-21T12:50:25.811Z,1.90
2023-03-21T12:52:56.907Z,2.60
2023-03-21T12:55:27.827Z,2.07
2023-03-21T12:58:03.536Z,2.00
2023-03-21T13:00:37.820Z,2.10
2023-03-21T13:03:12.374Z,2.00
2023-03-21T13:05:46.554Z,1.70
2023-03-21T13:08:19.219Z,2.27
2023-03-21T13:10:47.599Z,1.90
2023-03-21T13:13:22.645Z,2.50
2023-03-21T13:16:11.125Z,1.90
2023-03-21T13:19:03.791Z,1.90
2023-03-21T13:21:43.795Z,2.00
2023-03-21T13:24:29.909Z,2.10
2023-03-21T13:27:04.069Z,2.20
2023-03-21T13:29:34.506Z,1.90
2023-03-21T13:32:10.345Z,1.50
2023-03-21T13:34:42.036Z,1.57
2023-03-21T13:37:17.395Z,1.87
2023-03-21T13:39:47.007Z,1.60
2023-03-21T13:42:23.961Z,1.57
2023-03-21T13:44:56.123Z,2.47
2023-03-21T13:47:32.562Z,1.70
2023-03-21T13:50:34.921Z,1.67
2023-03-21T13:53:31.803Z,1.60
2023-03-21T13:56:25.183Z,1.60
2023-03-21T13:59:04.092Z,1.30
2023-03-21T14:01:41.256Z,1.87
2023-03-21T14:04:15.492Z,1.53
2023-03-21T14:06:48.967Z,2.00
2023-03-21T14:09:22.441Z,2.10
2023-03-21T14:11:54.692Z,2.20
2023-03-21T14:14:30.864Z,1.83
2023-03-21T14:16:58.626Z,1.80
2023-03-21T14:19:30.933Z,1.90
2023-03-21T14:22:00.282Z,1.60
2023-03-21T14:24:28.122Z,1.53
2023-03-21T14:26:56.815Z,2.30
2023-03-21T14:29:28.592Z,1.43
2023-03-21T14:31:59.987Z,1.47
2023-03-21T14:34:29.388Z,1.20
2023-03-21T14:36:58.927Z,1.40
2023-03-21T14:39:30.661Z,1.60
2023-03-21T14:42:04.342Z,1.40
2023-03-21T14:44:52.933Z,1.30
2023-03-21T14:47:23.029Z,1.17
2023-03-21T14:49:51.877Z,0.90
2023-03-21T14:52:25.614Z,1.00
2023-03-21T14:54:56.224Z,1.10
2023-03-21T14:57:27.510Z,1.10
2023-03-21T14:59:57.888Z,0.90
2023-03-21T15:02:29.060Z,0.93
2023-03-21T15:04:58.654Z,0.90
2023-03-21T15:07:29.123Z,1.00
2023-03-21T15:10:00.822Z,1.10
2023-03-21T15:12:28.651Z,1.00
2023-03-21T15:14:57.369Z,1.10
2023-03-21T15:17:26.342Z,1.00
2023-03-21T15:19:54.294Z,0.90
2023-03-21T15:22:28.886Z,1.20
2023-03-21T15:25:01.317Z,1.00
2023-03-21T15:27:33.579Z,0.90
2023-03-21T15:30:01.514Z,1.10
2023-03-21T15:32:30.247Z,0.97
2023-03-21T15:35:07.637Z,1.00
2023-03-21T15:37:38.386Z,1.20
2023-03-21T15:40:23.543Z,1.40
2023-03-21T15:42:51.634Z,0.80
2023-03-21T15:45:23.344Z,1.10
2023-03-21T15:47:54.180Z,1.13
2023-03-21T15:50:34.610Z,1.10
2023-03-21T15:53:05.930Z,1.20
2023-03-21T15:55:43.368Z,1.30
2023-03-21T15:58:17.974Z,1.00
2023-03-21T16:00:54.332Z,1.00
2023-03-21T16:03:25.764Z,0.80
2023-03-21T16:06:04.607Z,0.80
2023-03-21T16:08:35.607Z,1.20
2023-03-21T16:11:18.160Z,1.00
2023-03-21T16:13:46.333Z,1.00
2023-03-21T16:16:19.650Z,1.07
2023-03-21T16:18:47.481Z,0.90
2023-03-21T16:21:16.949Z,1.10
2023-03-21T16:23:45.376Z,0.90
2023-03-21T16:26:16.540Z,0.73
2023-03-21T16:28:44.779Z,0.70
2023-03-21T16:31:15.478Z,0.80
2023-03-21T16:33:44.114Z,0.73
2023-03-21T16:36:15.317Z,1.27
2023-03-21T16:38:43.118Z,1.20
2023-03-21T16:41:12.417Z,1.23
2023-03-21T16:43:43.158Z,1.27
2023-03-21T16:46:14.459Z,1.37
2023-03-21T16:48:42.797Z,1.23
2023-03-21T16:51:14.749Z,1.10
2023-03-21T16:53:42.594Z,1.00
2023-03-21T16:56:16.002Z,1.20
2023-03-21T16:58:45.248Z,1.10
2023-03-21T17:01:15.514Z,1.40
2023-03-21T17:03:43.708Z,1.57
2023-03-21T17:06:15.346Z,1.73
2023-03-21T17:08:43.567Z,1.20
2023-03-21T17:11:12.223Z,1.50
2023-03-21T17:13:40.103Z,1.30
2023-03-21T17:16:12.406Z,1.30
2023-03-21T17:18:40.250Z,1.10
2023-03-21T17:21:14.431Z,1.73
2023-03-21T17:23:42.590Z,1.90
2023-03-21T17:26:10.908Z,1.70
2023-03-21T17:28:39.234Z,1.77
2023-03-21T17:31:14.533Z,1.70
2023-03-21T17:33:42.891Z,1.73
2023-03-21T17:36:14.583Z,1.97
2023-03-21T17:38:42.596Z,2.03
2023-03-21T17:41:12.333Z,1.57
2023-03-21T17:43:40.133Z,2.23
2023-03-21T17:46:13.931Z,2.40
2023-03-21T17:48:42.160Z,2.60
2023-03-21T17:51:12.650Z,2.17
2023-03-21T17:53:40.438Z,2.30
2023-03-21T17:56:13.637Z,2.10
2023-03-21T17:58:41.497Z,1.97
2023-03-21T18:01:10.690Z,2.00
2023-03-21T18:03:38.582Z,2.30
2023-03-21T18:06:07.398Z,2.10
2023-03-21T18:08:35.152Z,2.10
2023-03-21T18:11:02.981Z,2.53
2023-03-21T18:13:31.075Z,2.50
2023-03-21T18:15:59.731Z,2.17
2023-03-21T18:18:29.067Z,2.23
2023-03-21T18:20:58.472Z,2.20
2023-03-21T18:23:26.695Z,2.27
2023-03-21T18:25:54.909Z,2.20
2023-03-21T18:28:23.233Z,2.57
2023-03-21T18:31:12.622Z,2.90
2023-03-21T18:33:42.203Z,2.80
2023-03-21T18:36:13.962Z,3.53
2023-03-21T18:38:42.532Z,3.60
2023-03-21T18:41:11.351Z,3.70
2023-03-21T18:46:27.777Z,2.87
2023-03-21T18:48:57.217Z,3.10
2023-03-21T18:51:25.134Z,2.63
2023-03-21T18:53:52.879Z,3.07
2023-03-21T18:57:16.624Z,2.60
2023-03-21T18:59:09.224Z,3.00
2023-03-21T19:01:37.276Z,3.10
2023-03-21T19:04:20.951Z,3.50
2023-03-21T19:06:51.531Z,3.80
2023-03-21T19:09:19.530Z,3.37
2023-03-21T19:11:47.536Z,3.70
2023-03-21T19:14:16.815Z,4.80
2023-03-21T19:17:18.318Z,5.60
2023-03-21T19:19:34.013Z,5.33
2023-03-21T19:22:01.836Z,4.70
2023-03-21T19:24:29.630Z,4.20
2023-03-21T19:26:57.513Z,3.50
2023-03-21T19:29:25.681Z,3.50
2023-03-21T19:31:53.615Z,3.27
2023-03-21T19:34:21.615Z,3.90
2023-03-21T19:36:52.178Z,4.20
2023-03-21T19:39:22.201Z,4.33
2023-03-21T19:41:50.470Z,4.07
2023-03-21T19:44:19.026Z,3.93
2023-03-21T19:46:48.279Z,4.40
2023-03-21T19:49:19.999Z,4.37
2023-03-21T19:51:48.312Z,4.30
2023-03-21T19:54:18.320Z,4.53
2023-03-21T19:56:47.455Z,4.40
2023-03-21T19:59:16.488Z,3.80
2023-03-21T20:01:44.570Z,2.93
2023-03-21T20:04:12.650Z,3.30
2023-03-21T20:06:40.475Z,2.97
2023-03-21T20:12:00.393Z,3.43
2023-03-21T20:14:28.218Z,2.83
2023-03-21T20:16:57.135Z,3.47
2023-03-21T20:19:25.320Z,3.77
2023-03-21T20:21:58.779Z,4.83
2023-03-21T20:24:28.471Z,5.27
2023-03-21T20:26:57.590Z,4.80
2023-03-21T20:32:13.122Z,4.40
2023-03-21T20:34:41.073Z,5.17
2023-03-21T20:37:09.634Z,4.63
2023-03-21T20:39:37.569Z,5.00
2023-03-21T20:42:07.040Z,4.83
2023-03-21T20:44:52.333Z,4.47
2023-03-21T20:47:23.533Z,3.80
2023-03-21T20:49:51.296Z,4.30
2023-03-21T20:55:08.924Z,3.30
2023-03-21T20:57:39.036Z,3.80
2023-03-21T21:00:14.649Z,3.67
2023-03-21T21:02:44.213Z,4.73
2023-03-21T21:05:33.093Z,5.70
2023-03-21T21:08:03.427Z,5.13
2023-03-21T21:10:33.577Z,5.17
2023-03-21T21:13:02.874Z,4.43
2023-03-21T21:15:30.654Z,4.27
2023-03-21T21:18:05.939Z,3.93
2023-03-21T21:20:35.092Z,3.30
2023-03-21T21:23:02.902Z,3.20
2023-03-21T21:25:33.942Z,3.00
2023-03-21T21:28:03.697Z,2.87
2023-03-21T21:30:33.481Z,3.10
2023-03-21T21:33:01.547Z,3.00
2023-03-21T21:35:29.385Z,3.33
2023-03-21T21:37:57.208Z,3.47
2023-03-21T21:40:25.463Z,3.77
2023-03-21T21:42:53.451Z,4.27
2023-03-21T21:45:22.596Z,3.93
2023-03-21T21:47:50.825Z,3.60
2023-03-21T21:50:19.861Z,3.80
2023-03-21T21:52:54.003Z,3.53
2023-03-21T21:55:22.313Z,3.80
2023-03-21T21:57:51.183Z,3.63
2023-03-21T22:00:20.596Z,4.00
2023-03-21T22:02:49.773Z,3.43
2023-03-21T22:05:18.779Z,3.37
2023-03-21T22:07:46.872Z,3.10
2023-03-21T22:10:15.316Z,3.93
2023-03-21T22:12:43.069Z,3.60
2023-03-21T22:15:12.974Z,4.30
2023-03-21T22:17:41.675Z,4.50
2023-03-21T22:20:14.384Z,4.33
2023-03-21T22:22:43.180Z,4.03
2023-03-21T22:25:13.726Z,4.40
2023-03-21T22:27:41.777Z,4.30
2023-03-21T22:30:13.572Z,4.90
2023-03-21T22:32:42.055Z,4.60
2023-03-21T22:35:11.878Z,4.33
2023-03-21T22:37:41.375Z,4.10
2023-03-21T22:40:12.930Z,4.70
2023-03-21T22:42:41.465Z,5.03
2023-03-21T22:45:11.685Z,4.07
2023-03-21T22:47:39.820Z,4.67
2023-03-21T22:50:09.027Z,3.90
2023-03-21T22:52:38.150Z,4.20
2023-03-21T22:55:09.544Z,4.40
2023-03-21T22:57:37.302Z,5.00
2023-03-21T23:00:12.863Z,5.00
2023-03-21T23:02:41.256Z,5.80
2023-03-21T23:05:09.734Z,5.37
2023-03-21T23:07:38.919Z,5.10
2023-03-21T23:10:08.684Z,5.63
2023-03-21T23:12:37.423Z,4.40
2023-03-21T23:15:06.193Z,4.77
2023-03-21T23:17:35.290Z,4.70
2023-03-21T23:20:05.788Z,4.33
2023-03-21T23:22:34.447Z,4.77
2023-03-21T23:25:04.069Z,4.33
2023-03-21T23:27:31.979Z,4.50
2023-03-21T23:29:59.775Z,4.70
2023-03-21T23:32:27.535Z,4.33
2023-03-21T23:34:55.929Z,4.57
2023-03-21T23:37:24.864Z,5.17
2023-03-21T23:39:54.781Z,4.97
2023-03-21T23:42:23.970Z,4.80
2023-03-21T23:44:51.725Z,5.07
2023-03-21T23:47:19.475Z,5.13
2023-03-21T23:49:49.147Z,5.77
2023-03-21T23:52:16.929Z,5.70
2023-03-21T23:54:44.755Z,5.47
2023-03-21T23:57:12.524Z,4.37
2023-03-21T23:59:41.679Z,4.67
